sensor_id;sensor_type;location;lat;lon;timestamp;temperature;humidity
2463;DHT22;1243;54.298;10.172;2022-09-28T00:01:28;9.10;99.90
2463;DHT22;1243;54.298;10.172;2022-09-28T00:03:55;9.00;99.90
2463;DHT22;1243;54.298;10.172;2022-09-28T00:06:25;9.00;1.00
2463;DHT22;1243;54.298;10.172;2022-09-28T00:08:51;9.10;99.90
2463;DHT22;1243;54.298;10.172;2022-09-28T00:11:18;9.00;1.00
2463;DHT22;1243;54.298;10.172;2022-09-28T00:13:48;9.00;99.90
2463;DHT22;1243;54.298;10.172;2022-09-28T00:16:16;9.10;1.00
2463;DHT22;1243;54.298;10.172;2022-09-28T00:18:44;9.10;1.00
2463;DHT22;1243;54.298;10.172;2022-09-28T00:21:12;9.10;1.00
2463;DHT22;1243;54.298;10.172;2022-09-28T00:23:39;9.10;1.00
2463;DHT22;1243;54.298;10.172;2022-09-28T00:26:29;9.10;1.00
2463;DHT22;1243;54.298;10.172;2022-09-28T00:28:57;9.10;1.00
2463;DHT22;1243;54.298;10.172;2022-09-28T00:31:24;9.10;1.00
2463;DHT22;1243;54.298;10.172;2022-09-28T00:33:51;9.20;1.00
2463;DHT22;1243;54.298;10.172;2022-09-28T00:36:18;9.20;1.00
2463;DHT22;1243;54.298;10.172;2022-09-28T00:38:44;9.20;1.00
2463;DHT22;1243;54.298;10.172;2022-09-28T00:41:11;9.30;1.00
2463;DHT22;1243;54.298;10.172;2022-09-28T00:43:37;9.30;1.00
2463;DHT22;1243;54.298;10.172;2022-09-28T00:48:38;9.20;1.00
2463;DHT22;1243;54.298;10.172;2022-09-28T00:51:07;9.20;1.00
2463;DHT22;1243;54.298;10.172;2022-09-28T00:53:35;9.20;1.00
2463;DHT22;1243;54.298;10.172;2022-09-28T00:56:12;9.20;1.00
2463;DHT22;1243;54.298;10.172;2022-09-28T00:58:48;9.20;1.00
2463;DHT22;1243;54.298;10.172;2022-09-28T01:01:15;9.10;1.00
2463;DHT22;1243;54.298;10.172;2022-09-28T01:03:41;9.10;1.00
2463;DHT22;1243;54.298;10.172;2022-09-28T01:06:17;9.20;1.00
2463;DHT22;1243;54.298;10.172;2022-09-28T01:08:45;9.20;1.00
2463;DHT22;1243;54.298;10.172;2022-09-28T01:11:11;9.20;1.00
2463;DHT22;1243;54.298;10.172;2022-09-28T01:13:37;9.30;1.00
2463;DHT22;1243;54.298;10.172;2022-09-28T01:16:10;9.20;1.00
2463;DHT22;1243;54.298;10.172;2022-09-28T01:18:39;9.30;1.00
2463;DHT22;1243;54.298;10.172;2022-09-28T01:21:18;9.30;1.00
2463;DHT22;1243;54.298;10.172;2022-09-28T01:26:54;9.20;1.00
2463;DHT22;1243;54.298;10.172;2022-09-28T01:32:19;9.30;1.00
2463;DHT22;1243;54.298;10.172;2022-09-28T01:35:04;9.40;1.00
2463;DHT22;1243;54.298;10.172;2022-09-28T01:40:09;9.30;1.00
2463;DHT22;1243;54.298;10.172;2022-09-28T01:42:37;9.30;1.00
2463;DHT22;1243;54.298;10.172;2022-09-28T01:45:09;9.20;1.00
2463;DHT22;1243;54.298;10.172;2022-09-28T01:47:38;9.20;1.00
2463;DHT22;1243;54.298;10.172;2022-09-28T01:50:14;9.20;1.00
2463;DHT22;1243;54.298;10.172;2022-09-28T01:53:00;9.20;1.00
2463;DHT22;1243;54.298;10.172;2022-09-28T01:55:31;9.20;1.00
2463;DHT22;1243;54.298;10.172;2022-09-28T01:58:05;9.20;1.00
2463;DHT22;1243;54.298;10.172;2022-09-28T02:00:36;9.30;1.00
2463;DHT22;1243;54.298;10.172;2022-09-28T02:03:11;9.30;1.00
2463;DHT22;1243;54.298;10.172;2022-09-28T02:05:39;9.30;1.00
2463;DHT22;1243;54.298;10.172;2022-09-28T02:08:39;9.40;1.00
2463;DHT22;1243;54.298;10.172;2022-09-28T02:11:17;9.40;1.00
2463;DHT22;1243;54.298;10.172;2022-09-28T02:13:53;9.30;1.00
2463;DHT22;1243;54.298;10.172;2022-09-28T02:16:43;9.40;1.00
2463;DHT22;1243;54.298;10.172;2022-09-28T02:19:15;9.40;1.00
2463;DHT22;1243;54.298;10.172;2022-09-28T02:21:48;9.30;1.00
2463;DHT22;1243;54.298;10.172;2022-09-28T02:24:27;9.30;1.00
2463;DHT22;1243;54.298;10.172;2022-09-28T02:26:58;9.20;1.00
2463;DHT22;1243;54.298;10.172;2022-09-28T02:29:25;9.20;1.00
2463;DHT22;1243;54.298;10.172;2022-09-28T02:31:51;9.20;1.00
2463;DHT22;1243;54.298;10.172;2022-09-28T02:34:16;9.20;1.00
2463;DHT22;1243;54.298;10.172;2022-09-28T02:36:43;9.20;1.00
2463;DHT22;1243;54.298;10.172;2022-09-28T02:39:16;9.20;1.00
2463;DHT22;1243;54.298;10.172;2022-09-28T02:44:37;9.30;1.00
2463;DHT22;1243;54.298;10.172;2022-09-28T02:47:30;9.20;1.00
2463;DHT22;1243;54.298;10.172;2022-09-28T03:01:26;9.20;1.00
2463;DHT22;1243;54.298;10.172;2022-09-28T03:04:17;9.30;1.00
2463;DHT22;1243;54.298;10.172;2022-09-28T03:06:47;9.30;1.00
2463;DHT22;1243;54.298;10.172;2022-09-28T03:09:28;9.40;1.00
2463;DHT22;1243;54.298;10.172;2022-09-28T03:12:00;9.30;1.00
2463;DHT22;1243;54.298;10.172;2022-09-28T03:14:29;9.40;1.00
2463;DHT22;1243;54.298;10.172;2022-09-28T03:16:54;9.40;1.00
2463;DHT22;1243;54.298;10.172;2022-09-28T03:19:23;9.40;1.00
2463;DHT22;1243;54.298;10.172;2022-09-28T03:21:51;9.40;1.00
2463;DHT22;1243;54.298;10.172;2022-09-28T03:24:17;9.40;1.00
2463;DHT22;1243;54.298;10.172;2022-09-28T03:26:42;9.50;1.00
2463;DHT22;1243;54.298;10.172;2022-09-28T03:29:08;9.50;1.00
2463;DHT22;1243;54.298;10.172;2022-09-28T03:31:34;9.50;1.00
2463;DHT22;1243;54.298;10.172;2022-09-28T03:33:59;9.50;1.00
2463;DHT22;1243;54.298;10.172;2022-09-28T03:36:25;9.50;1.00
2463;DHT22;1243;54.298;10.172;2022-09-28T03:38:51;9.50;1.00
2463;DHT22;1243;54.298;10.172;2022-09-28T03:41:19;9.60;1.00
2463;DHT22;1243;54.298;10.172;2022-09-28T03:43:46;9.60;1.00
2463;DHT22;1243;54.298;10.172;2022-09-28T03:46:11;9.60;1.00
2463;DHT22;1243;54.298;10.172;2022-09-28T03:48:38;9.60;1.00
2463;DHT22;1243;54.298;10.172;2022-09-28T03:51:05;9.60;1.00
2463;DHT22;1243;54.298;10.172;2022-09-28T03:53:34;9.50;1.00
2463;DHT22;1243;54.298;10.172;2022-09-28T03:56:17;9.50;1.00
2463;DHT22;1243;54.298;10.172;2022-09-28T03:58:43;9.50;1.00
2463;DHT22;1243;54.298;10.172;2022-09-28T04:01:13;9.40;1.00
2463;DHT22;1243;54.298;10.172;2022-09-28T04:03:42;9.50;1.00
2463;DHT22;1243;54.298;10.172;2022-09-28T04:06:08;9.40;1.00
2463;DHT22;1243;54.298;10.172;2022-09-28T04:08:34;9.40;1.00
2463;DHT22;1243;54.298;10.172;2022-09-28T04:11:00;9.40;1.00
2463;DHT22;1243;54.298;10.172;2022-09-28T04:13:26;9.30;1.00
2463;DHT22;1243;54.298;10.172;2022-09-28T04:15:55;9.20;1.00
2463;DHT22;1243;54.298;10.172;2022-09-28T04:18:22;9.30;1.00
2463;DHT22;1243;54.298;10.172;2022-09-28T04:20:57;9.30;1.00
2463;DHT22;1243;54.298;10.172;2022-09-28T04:23:23;9.30;1.00
2463;DHT22;1243;54.298;10.172;2022-09-28T04:25:52;9.30;1.00
2463;DHT22;1243;54.298;10.172;2022-09-28T04:28:18;9.30;1.00
2463;DHT22;1243;54.298;10.172;2022-09-28T04:31:02;9.30;1.00
2463;DHT22;1243;54.298;10.172;2022-09-28T04:33:28;9.30;1.00
2463;DHT22;1243;54.298;10.172;2022-09-28T04:35:53;9.30;1.00
2463;DHT22;1243;54.298;10.172;2022-09-28T04:38:19;9.20;1.00
2463;DHT22;1243;54.298;10.172;2022-09-28T04:40:48;9.20;1.00
2463;DHT22;1243;54.298;10.172;2022-09-28T04:43:13;9.20;1.00
2463;DHT22;1243;54.298;10.172;2022-09-28T04:45:39;9.10;1.00
2463;DHT22;1243;54.298;10.172;2022-09-28T04:48:07;9.10;1.00
2463;DHT22;1243;54.298;10.172;2022-09-28T04:50:33;9.10;1.00
2463;DHT22;1243;54.298;10.172;2022-09-28T04:53:02;9.00;1.00
2463;DHT22;1243;54.298;10.172;2022-09-28T04:55:28;8.90;1.00
2463;DHT22;1243;54.298;10.172;2022-09-28T04:57:57;9.00;1.00
2463;DHT22;1243;54.298;10.172;2022-09-28T05:00:29;9.00;1.00
2463;DHT22;1243;54.298;10.172;2022-09-28T05:02:59;8.90;1.00
2463;DHT22;1243;54.298;10.172;2022-09-28T05:05:25;8.90;1.00
2463;DHT22;1243;54.298;10.172;2022-09-28T05:07:50;8.90;1.00
2463;DHT22;1243;54.298;10.172;2022-09-28T05:10:16;9.00;1.00
2463;DHT22;1243;54.298;10.172;2022-09-28T05:12:43;8.90;1.00
2463;DHT22;1243;54.298;10.172;2022-09-28T05:15:09;9.00;1.00
2463;DHT22;1243;54.298;10.172;2022-09-28T05:17:35;9.00;1.00
2463;DHT22;1243;54.298;10.172;2022-09-28T05:20:00;9.00;1.00
2463;DHT22;1243;54.298;10.172;2022-09-28T05:22:27;9.10;1.00
2463;DHT22;1243;54.298;10.172;2022-09-28T05:24:53;9.20;1.00
2463;DHT22;1243;54.298;10.172;2022-09-28T05:27:19;9.10;1.00
2463;DHT22;1243;54.298;10.172;2022-09-28T05:29:45;9.10;1.00
2463;DHT22;1243;54.298;10.172;2022-09-28T05:32:11;9.10;1.00
2463;DHT22;1243;54.298;10.172;2022-09-28T05:34:36;9.00;1.00
2463;DHT22;1243;54.298;10.172;2022-09-28T05:37:02;9.00;1.00
2463;DHT22;1243;54.298;10.172;2022-09-28T05:39:28;9.00;1.00
2463;DHT22;1243;54.298;10.172;2022-09-28T05:41:54;9.00;1.00
2463;DHT22;1243;54.298;10.172;2022-09-28T05:44:22;8.90;1.00
2463;DHT22;1243;54.298;10.172;2022-09-28T05:46:47;9.00;1.00
2463;DHT22;1243;54.298;10.172;2022-09-28T05:49:13;9.00;1.00
2463;DHT22;1243;54.298;10.172;2022-09-28T05:51:39;9.00;1.00
2463;DHT22;1243;54.298;10.172;2022-09-28T05:54:04;9.00;1.00
2463;DHT22;1243;54.298;10.172;2022-09-28T05:56:30;9.00;1.00
2463;DHT22;1243;54.298;10.172;2022-09-28T05:58:56;9.00;1.00
2463;DHT22;1243;54.298;10.172;2022-09-28T06:01:23;9.00;1.00
2463;DHT22;1243;54.298;10.172;2022-09-28T06:03:49;9.00;1.00
2463;DHT22;1243;54.298;10.172;2022-09-28T06:06:14;9.10;1.00
2463;DHT22;1243;54.298;10.172;2022-09-28T06:08:40;9.00;1.00
2463;DHT22;1243;54.298;10.172;2022-09-28T06:11:10;9.00;1.00
2463;DHT22;1243;54.298;10.172;2022-09-28T06:13:37;9.00;1.00
2463;DHT22;1243;54.298;10.172;2022-09-28T06:16:05;9.10;1.00
2463;DHT22;1243;54.298;10.172;2022-09-28T06:18:32;9.10;1.00
2463;DHT22;1243;54.298;10.172;2022-09-28T06:20:57;9.00;1.00
2463;DHT22;1243;54.298;10.172;2022-09-28T06:23:23;9.00;1.00
2463;DHT22;1243;54.298;10.172;2022-09-28T06:25:49;9.00;1.00
2463;DHT22;1243;54.298;10.172;2022-09-28T06:28:15;9.00;1.00
2463;DHT22;1243;54.298;10.172;2022-09-28T06:30:41;9.00;1.00
2463;DHT22;1243;54.298;10.172;2022-09-28T06:33:10;9.00;1.00
2463;DHT22;1243;54.298;10.172;2022-09-28T06:35:37;8.90;1.00
2463;DHT22;1243;54.298;10.172;2022-09-28T06:38:04;8.90;1.00
2463;DHT22;1243;54.298;10.172;2022-09-28T06:40:29;9.00;1.00
2463;DHT22;1243;54.298;10.172;2022-09-28T06:43:07;9.00;1.00
2463;DHT22;1243;54.298;10.172;2022-09-28T06:45:37;9.10;1.00
2463;DHT22;1243;54.298;10.172;2022-09-28T06:48:04;9.10;1.00
2463;DHT22;1243;54.298;10.172;2022-09-28T06:50:40;9.20;1.00
2463;DHT22;1243;54.298;10.172;2022-09-28T06:53:07;9.00;1.00
2463;DHT22;1243;54.298;10.172;2022-09-28T06:55:34;9.00;1.00
2463;DHT22;1243;54.298;10.172;2022-09-28T06:58:05;8.90;1.00
2463;DHT22;1243;54.298;10.172;2022-09-28T07:00:33;8.90;1.00
2463;DHT22;1243;54.298;10.172;2022-09-28T07:03:06;9.00;1.00
2463;DHT22;1243;54.298;10.172;2022-09-28T07:05:34;8.90;1.00
2463;DHT22;1243;54.298;10.172;2022-09-28T07:08:02;8.90;1.00
2463;DHT22;1243;54.298;10.172;2022-09-28T07:10:29;8.90;1.00
2463;DHT22;1243;54.298;10.172;2022-09-28T07:12:58;8.90;1.00
2463;DHT22;1243;54.298;10.172;2022-09-28T07:15:27;9.00;1.00
2463;DHT22;1243;54.298;10.172;2022-09-28T07:18:01;9.00;1.00
2463;DHT22;1243;54.298;10.172;2022-09-28T07:20:27;9.10;1.00
2463;DHT22;1243;54.298;10.172;2022-09-28T07:22:58;9.20;1.00
2463;DHT22;1243;54.298;10.172;2022-09-28T07:25:25;9.20;1.00
2463;DHT22;1243;54.298;10.172;2022-09-28T07:27:55;9.10;1.00
2463;DHT22;1243;54.298;10.172;2022-09-28T07:30:22;9.10;1.00
2463;DHT22;1243;54.298;10.172;2022-09-28T07:32:48;9.10;1.00
2463;DHT22;1243;54.298;10.172;2022-09-28T07:35:14;9.20;1.00
2463;DHT22;1243;54.298;10.172;2022-09-28T07:37:40;9.20;1.00
2463;DHT22;1243;54.298;10.172;2022-09-28T07:40:07;9.30;1.00
2463;DHT22;1243;54.298;10.172;2022-09-28T07:42:52;9.40;1.00
2463;DHT22;1243;54.298;10.172;2022-09-28T07:45:18;9.40;1.00
2463;DHT22;1243;54.298;10.172;2022-09-28T07:47:54;9.30;1.00
2463;DHT22;1243;54.298;10.172;2022-09-28T07:50:20;9.30;1.00
2463;DHT22;1243;54.298;10.172;2022-09-28T07:52:46;9.30;1.00
2463;DHT22;1243;54.298;10.172;2022-09-28T07:55:12;9.30;1.00
2463;DHT22;1243;54.298;10.172;2022-09-28T07:57:37;9.40;1.00
2463;DHT22;1243;54.298;10.172;2022-09-28T08:00:05;9.30;1.00
2463;DHT22;1243;54.298;10.172;2022-09-28T08:02:32;9.40;1.00
2463;DHT22;1243;54.298;10.172;2022-09-28T08:05:00;9.50;1.00
2463;DHT22;1243;54.298;10.172;2022-09-28T08:07:26;9.40;1.00
2463;DHT22;1243;54.298;10.172;2022-09-28T08:09:52;9.50;1.00
2463;DHT22;1243;54.298;10.172;2022-09-28T08:12:18;9.60;1.00
2463;DHT22;1243;54.298;10.172;2022-09-28T08:14:45;9.70;1.00
2463;DHT22;1243;54.298;10.172;2022-09-28T08:17:11;9.80;1.00
2463;DHT22;1243;54.298;10.172;2022-09-28T08:19:36;9.80;1.00
2463;DHT22;1243;54.298;10.172;2022-09-28T08:22:20;9.80;1.00
2463;DHT22;1243;54.298;10.172;2022-09-28T08:24:47;9.80;1.00
2463;DHT22;1243;54.298;10.172;2022-09-28T08:27:14;9.80;1.00
2463;DHT22;1243;54.298;10.172;2022-09-28T08:29:41;9.80;1.00
2463;DHT22;1243;54.298;10.172;2022-09-28T08:32:08;9.90;1.00
2463;DHT22;1243;54.298;10.172;2022-09-28T08:34:39;9.90;1.00
2463;DHT22;1243;54.298;10.172;2022-09-28T08:37:06;9.90;1.00
2463;DHT22;1243;54.298;10.172;2022-09-28T08:39:34;9.90;1.00
2463;DHT22;1243;54.298;10.172;2022-09-28T08:44:48;9.90;1.00
2463;DHT22;1243;54.298;10.172;2022-09-28T08:47:21;10.00;1.00
2463;DHT22;1243;54.298;10.172;2022-09-28T08:50:13;10.00;1.00
2463;DHT22;1243;54.298;10.172;2022-09-28T08:52:44;9.90;1.00
2463;DHT22;1243;54.298;10.172;2022-09-28T08:55:34;10.00;1.00
2463;DHT22;1243;54.298;10.172;2022-09-28T08:58:13;10.10;1.00
2463;DHT22;1243;54.298;10.172;2022-09-28T09:00:46;10.20;1.00
2463;DHT22;1243;54.298;10.172;2022-09-28T09:03:33;10.00;1.00
2463;DHT22;1243;54.298;10.172;2022-09-28T09:12:00;9.90;99.90
2463;DHT22;1243;54.298;10.172;2022-09-28T09:26:16;10.00;1.00
2463;DHT22;1243;54.298;10.172;2022-09-28T09:32:05;10.00;1.00
2463;DHT22;1243;54.298;10.172;2022-09-28T09:34:56;10.10;1.00
2463;DHT22;1243;54.298;10.172;2022-09-28T09:40:37;10.20;99.90
2463;DHT22;1243;54.298;10.172;2022-09-28T09:46:17;10.50;99.90
2463;DHT22;1243;54.298;10.172;2022-09-28T09:52:09;10.50;99.90
2463;DHT22;1243;54.298;10.172;2022-09-28T09:54:19;10.50;99.90
2463;DHT22;1243;54.298;10.172;2022-09-28T09:57:00;10.40;99.90
2463;DHT22;1243;54.298;10.172;2022-09-28T09:59:34;10.40;99.90
2463;DHT22;1243;54.298;10.172;2022-09-28T10:02:08;10.50;99.90
2463;DHT22;1243;54.298;10.172;2022-09-28T10:04:41;10.70;99.90
2463;DHT22;1243;54.298;10.172;2022-09-28T10:07:22;10.80;99.90
2463;DHT22;1243;54.298;10.172;2022-09-28T10:09:49;10.80;99.90
2463;DHT22;1243;54.298;10.172;2022-09-28T10:12:18;10.80;99.90
2463;DHT22;1243;54.298;10.172;2022-09-28T10:14:45;10.90;99.90
2463;DHT22;1243;54.298;10.172;2022-09-28T10:17:14;10.80;99.90
2463;DHT22;1243;54.298;10.172;2022-09-28T10:19:41;10.90;99.90
2463;DHT22;1243;54.298;10.172;2022-09-28T10:22:13;11.00;99.90
2463;DHT22;1243;54.298;10.172;2022-09-28T10:24:43;10.90;99.90
2463;DHT22;1243;54.298;10.172;2022-09-28T10:27:21;10.80;99.90
2463;DHT22;1243;54.298;10.172;2022-09-28T10:32:24;10.80;99.90
2463;DHT22;1243;54.298;10.172;2022-09-28T10:34:51;10.90;99.90
2463;DHT22;1243;54.298;10.172;2022-09-28T10:37:17;10.90;99.90
2463;DHT22;1243;54.298;10.172;2022-09-28T10:39:52;11.00;99.90
2463;DHT22;1243;54.298;10.172;2022-09-28T10:42:25;11.10;99.90
2463;DHT22;1243;54.298;10.172;2022-09-28T10:47:35;11.30;99.90
2463;DHT22;1243;54.298;10.172;2022-09-28T10:50:01;11.30;99.90
2463;DHT22;1243;54.298;10.172;2022-09-28T10:52:32;11.30;99.90
2463;DHT22;1243;54.298;10.172;2022-09-28T10:54:59;11.40;99.90
2463;DHT22;1243;54.298;10.172;2022-09-28T10:57:32;11.40;99.90
2463;DHT22;1243;54.298;10.172;2022-09-28T10:59:59;11.50;99.90
2463;DHT22;1243;54.298;10.172;2022-09-28T11:02:33;11.60;99.90
2463;DHT22;1243;54.298;10.172;2022-09-28T11:05:02;11.50;99.90
2463;DHT22;1243;54.298;10.172;2022-09-28T11:07:31;11.50;99.90
2463;DHT22;1243;54.298;10.172;2022-09-28T11:09:59;11.50;99.90
2463;DHT22;1243;54.298;10.172;2022-09-28T11:12:37;11.60;99.90
2463;DHT22;1243;54.298;10.172;2022-09-28T11:15:15;11.60;99.90
2463;DHT22;1243;54.298;10.172;2022-09-28T11:17:41;11.60;99.90
2463;DHT22;1243;54.298;10.172;2022-09-28T11:22:53;11.40;99.90
2463;DHT22;1243;54.298;10.172;2022-09-28T11:25:21;11.50;99.90
2463;DHT22;1243;54.298;10.172;2022-09-28T11:32:45;11.50;99.90
2463;DHT22;1243;54.298;10.172;2022-09-28T11:35:21;11.60;99.90
2463;DHT22;1243;54.298;10.172;2022-09-28T11:38:19;11.70;99.90
2463;DHT22;1243;54.298;10.172;2022-09-28T11:40:56;11.60;99.90
2463;DHT22;1243;54.298;10.172;2022-09-28T11:51:46;11.90;99.90
2463;DHT22;1243;54.298;10.172;2022-09-28T11:54:28;11.90;99.90
2463;DHT22;1243;54.298;10.172;2022-09-28T11:57:00;12.10;99.90
2463;DHT22;1243;54.298;10.172;2022-09-28T12:00:12;12.10;99.90
2463;DHT22;1243;54.298;10.172;2022-09-28T12:02:24;12.20;99.90
2463;DHT22;1243;54.298;10.172;2022-09-28T12:04:57;12.20;99.90
2463;DHT22;1243;54.298;10.172;2022-09-28T12:07:24;12.20;99.90
2463;DHT22;1243;54.298;10.172;2022-09-28T12:10:11;12.00;99.90
2463;DHT22;1243;54.298;10.172;2022-09-28T12:12:45;12.00;99.90
2463;DHT22;1243;54.298;10.172;2022-09-28T12:18:11;12.00;99.90
2463;DHT22;1243;54.298;10.172;2022-09-28T12:20:47;12.00;99.90
2463;DHT22;1243;54.298;10.172;2022-09-28T12:23:14;12.10;99.90
2463;DHT22;1243;54.298;10.172;2022-09-28T12:25:56;12.10;99.90
2463;DHT22;1243;54.298;10.172;2022-09-28T12:28:41;12.20;99.90
2463;DHT22;1243;54.298;10.172;2022-09-28T12:31:19;12.20;99.90
2463;DHT22;1243;54.298;10.172;2022-09-28T12:33:48;12.30;99.90
2463;DHT22;1243;54.298;10.172;2022-09-28T12:39:02;12.50;99.90
2463;DHT22;1243;54.298;10.172;2022-09-28T12:41:36;12.50;99.90
2463;DHT22;1243;54.298;10.172;2022-09-28T13:04:17;12.80;94.40
2463;DHT22;1243;54.298;10.172;2022-09-28T13:09:26;13.40;99.90
2463;DHT22;1243;54.298;10.172;2022-09-28T13:18:05;15.50;35.70
2463;DHT22;1243;54.298;10.172;2022-09-28T13:20:41;15.50;51.10
2463;DHT22;1243;54.298;10.172;2022-09-28T13:23:21;15.70;46.70
2463;DHT22;1243;54.298;10.172;2022-09-28T13:28:40;16.50;1.00
2463;DHT22;1243;54.298;10.172;2022-09-28T13:31:08;16.10;1.00
2463;DHT22;1243;54.298;10.172;2022-09-28T13:33:42;15.60;1.00
2463;DHT22;1243;54.298;10.172;2022-09-28T13:38:54;14.80;1.00
2463;DHT22;1243;54.298;10.172;2022-09-28T13:41:38;14.50;1.00
2463;DHT22;1243;54.298;10.172;2022-09-28T13:52:38;15.10;1.00
2463;DHT22;1243;54.298;10.172;2022-09-28T13:57:59;15.00;1.00
2463;DHT22;1243;54.298;10.172;2022-09-28T14:00:37;14.80;1.00
2463;DHT22;1243;54.298;10.172;2022-09-28T14:03:25;14.80;1.00
2463;DHT22;1243;54.298;10.172;2022-09-28T14:11:41;14.50;1.00
2463;DHT22;1243;54.298;10.172;2022-09-28T14:16:34;14.70;1.00
2463;DHT22;1243;54.298;10.172;2022-09-28T14:19:20;15.00;1.00
2463;DHT22;1243;54.298;10.172;2022-09-28T14:22:14;15.20;1.00
2463;DHT22;1243;54.298;10.172;2022-09-28T14:25:22;15.10;1.00
2463;DHT22;1243;54.298;10.172;2022-09-28T14:30:23;15.10;1.00
2463;DHT22;1243;54.298;10.172;2022-09-28T14:32:55;15.10;1.00
2463;DHT22;1243;54.298;10.172;2022-09-28T14:35:38;15.00;1.00
2463;DHT22;1243;54.298;10.172;2022-09-28T14:38:17;15.00;1.00
2463;DHT22;1243;54.298;10.172;2022-09-28T14:56:27;15.40;1.00
2463;DHT22;1243;54.298;10.172;2022-09-28T14:58:56;15.60;1.00
2463;DHT22;1243;54.298;10.172;2022-09-28T15:01:24;15.90;1.00
2463;DHT22;1243;54.298;10.172;2022-09-28T15:03:53;16.00;1.00
2463;DHT22;1243;54.298;10.172;2022-09-28T15:06:22;15.80;1.00
2463;DHT22;1243;54.298;10.172;2022-09-28T15:08:48;15.50;1.00
2463;DHT22;1243;54.298;10.172;2022-09-28T15:11:24;15.30;1.00
2463;DHT22;1243;54.298;10.172;2022-09-28T15:14:04;14.90;1.00
2463;DHT22;1243;54.298;10.172;2022-09-28T15:16:30;14.50;1.00
2463;DHT22;1243;54.298;10.172;2022-09-28T15:21:36;14.00;1.00
2463;DHT22;1243;54.298;10.172;2022-09-28T15:26:48;13.80;1.00
2463;DHT22;1243;54.298;10.172;2022-09-28T15:29:17;13.80;1.00
2463;DHT22;1243;54.298;10.172;2022-09-28T15:31:44;13.80;1.00
2463;DHT22;1243;54.298;10.172;2022-09-28T15:34:35;13.80;1.00
2463;DHT22;1243;54.298;10.172;2022-09-28T15:37:34;13.70;1.00
2463;DHT22;1243;54.298;10.172;2022-09-28T15:40:01;13.50;1.00
2463;DHT22;1243;54.298;10.172;2022-09-28T15:42:33;13.40;1.00
2463;DHT22;1243;54.298;10.172;2022-09-28T15:47:32;13.30;1.00
2463;DHT22;1243;54.298;10.172;2022-09-28T15:50:03;13.30;1.00
2463;DHT22;1243;54.298;10.172;2022-09-28T15:52:36;13.30;1.00
2463;DHT22;1243;54.298;10.172;2022-09-28T15:55:23;13.20;1.00
2463;DHT22;1243;54.298;10.172;2022-09-28T15:58:12;13.20;1.00
2463;DHT22;1243;54.298;10.172;2022-09-28T16:00:43;13.00;1.00
2463;DHT22;1243;54.298;10.172;2022-09-28T16:08:21;12.70;1.00
2463;DHT22;1243;54.298;10.172;2022-09-28T16:13:30;12.50;1.00
2463;DHT22;1243;54.298;10.172;2022-09-28T16:15:57;12.50;1.00
2463;DHT22;1243;54.298;10.172;2022-09-28T16:18:25;12.50;1.00
2463;DHT22;1243;54.298;10.172;2022-09-28T16:23:38;12.30;1.00
2463;DHT22;1243;54.298;10.172;2022-09-28T16:26:14;12.10;1.00
2463;DHT22;1243;54.298;10.172;2022-09-28T16:33:43;12.10;1.00
2463;DHT22;1243;54.298;10.172;2022-09-28T16:36:14;12.00;1.00
2463;DHT22;1243;54.298;10.172;2022-09-28T16:38:44;11.90;1.00
2463;DHT22;1243;54.298;10.172;2022-09-28T16:41:10;11.80;1.00
2463;DHT22;1243;54.298;10.172;2022-09-28T16:43:37;11.60;1.00
2463;DHT22;1243;54.298;10.172;2022-09-28T16:46:11;11.60;1.00
2463;DHT22;1243;54.298;10.172;2022-09-28T16:48:43;11.60;1.00
2463;DHT22;1243;54.298;10.172;2022-09-28T16:51:19;11.50;1.00
2463;DHT22;1243;54.298;10.172;2022-09-28T16:53:45;11.50;1.00
2463;DHT22;1243;54.298;10.172;2022-09-28T16:56:31;11.40;1.00
2463;DHT22;1243;54.298;10.172;2022-09-28T16:58:57;11.30;1.00
2463;DHT22;1243;54.298;10.172;2022-09-28T17:01:23;11.20;1.00
2463;DHT22;1243;54.298;10.172;2022-09-28T17:03:49;11.10;1.00
2463;DHT22;1243;54.298;10.172;2022-09-28T17:06:16;11.10;1.00
2463;DHT22;1243;54.298;10.172;2022-09-28T17:08:43;11.00;1.00
2463;DHT22;1243;54.298;10.172;2022-09-28T17:11:14;10.90;1.00
2463;DHT22;1243;54.298;10.172;2022-09-28T17:13:41;10.80;1.00
2463;DHT22;1243;54.298;10.172;2022-09-28T17:16:13;10.80;1.00
2463;DHT22;1243;54.298;10.172;2022-09-28T17:18:39;10.70;1.00
2463;DHT22;1243;54.298;10.172;2022-09-28T17:21:10;10.60;1.00
2463;DHT22;1243;54.298;10.172;2022-09-28T17:23:37;10.40;1.00
2463;DHT22;1243;54.298;10.172;2022-09-28T17:26:03;10.40;2.60
2463;DHT22;1243;54.298;10.172;2022-09-28T17:28:31;10.30;2.60
2463;DHT22;1243;54.298;10.172;2022-09-28T17:30:57;10.30;8.70
2463;DHT22;1243;54.298;10.172;2022-09-28T17:33:24;10.30;6.60
2463;DHT22;1243;54.298;10.172;2022-09-28T17:35:52;10.20;9.80
2463;DHT22;1243;54.298;10.172;2022-09-28T17:38:21;10.10;7.20
2463;DHT22;1243;54.298;10.172;2022-09-28T17:40:47;10.10;12.00
2463;DHT22;1243;54.298;10.172;2022-09-28T17:43:13;10.10;14.70
2463;DHT22;1243;54.298;10.172;2022-09-28T17:45:39;10.00;18.90
2463;DHT22;1243;54.298;10.172;2022-09-28T17:48:17;10.00;16.20
2463;DHT22;1243;54.298;10.172;2022-09-28T17:50:44;10.00;16.70
2463;DHT22;1243;54.298;10.172;2022-09-28T17:53:12;10.00;12.40
2463;DHT22;1243;54.298;10.172;2022-09-28T17:55:38;9.90;17.90
2463;DHT22;1243;54.298;10.172;2022-09-28T17:58:18;9.90;22.50
2463;DHT22;1243;54.298;10.172;2022-09-28T18:00:49;9.90;34.80
2463;DHT22;1243;54.298;10.172;2022-09-28T18:03:20;9.80;49.00
2463;DHT22;1243;54.298;10.172;2022-09-28T18:05:49;9.80;34.00
2463;DHT22;1243;54.298;10.172;2022-09-28T18:08:18;9.80;49.60
2463;DHT22;1243;54.298;10.172;2022-09-28T18:10:45;9.70;48.00
2463;DHT22;1243;54.298;10.172;2022-09-28T18:13:11;9.70;39.20
2463;DHT22;1243;54.298;10.172;2022-09-28T18:15:37;9.70;49.20
2463;DHT22;1243;54.298;10.172;2022-09-28T18:18:03;9.70;65.90
2463;DHT22;1243;54.298;10.172;2022-09-28T18:20:28;9.60;53.50
2463;DHT22;1243;54.298;10.172;2022-09-28T18:22:55;9.60;56.70
2463;DHT22;1243;54.298;10.172;2022-09-28T18:25:20;9.60;72.40
2463;DHT22;1243;54.298;10.172;2022-09-28T18:27:46;9.50;53.90
2463;DHT22;1243;54.298;10.172;2022-09-28T18:30:12;9.50;60.70
2463;DHT22;1243;54.298;10.172;2022-09-28T18:32:37;9.40;56.80
2463;DHT22;1243;54.298;10.172;2022-09-28T18:35:05;9.40;68.20
2463;DHT22;1243;54.298;10.172;2022-09-28T18:37:38;9.40;63.80
2463;DHT22;1243;54.298;10.172;2022-09-28T18:40:06;9.30;70.20
2463;DHT22;1243;54.298;10.172;2022-09-28T18:42:32;9.30;73.20
2463;DHT22;1243;54.298;10.172;2022-09-28T18:45:00;9.20;56.00
2463;DHT22;1243;54.298;10.172;2022-09-28T18:47:26;9.20;75.20
2463;DHT22;1243;54.298;10.172;2022-09-28T18:49:52;9.10;76.40
2463;DHT22;1243;54.298;10.172;2022-09-28T18:52:18;9.10;66.90
2463;DHT22;1243;54.298;10.172;2022-09-28T18:54:43;9.10;71.70
2463;DHT22;1243;54.298;10.172;2022-09-28T18:57:11;9.00;67.50
2463;DHT22;1243;54.298;10.172;2022-09-28T18:59:36;9.00;69.80
2463;DHT22;1243;54.298;10.172;2022-09-28T19:02:02;9.00;74.80
2463;DHT22;1243;54.298;10.172;2022-09-28T19:04:28;9.00;66.30
2463;DHT22;1243;54.298;10.172;2022-09-28T19:06:53;8.90;72.10
2463;DHT22;1243;54.298;10.172;2022-09-28T19:09:21;8.90;90.80
2463;DHT22;1243;54.298;10.172;2022-09-28T19:11:48;8.90;89.70
2463;DHT22;1243;54.298;10.172;2022-09-28T19:14:14;8.90;88.70
2463;DHT22;1243;54.298;10.172;2022-09-28T19:16:41;8.90;90.40
2463;DHT22;1243;54.298;10.172;2022-09-28T19:19:08;8.90;92.10
2463;DHT22;1243;54.298;10.172;2022-09-28T19:21:36;8.90;92.00
2463;DHT22;1243;54.298;10.172;2022-09-28T19:24:02;8.90;92.00
2463;DHT22;1243;54.298;10.172;2022-09-28T19:26:28;8.90;92.10
2463;DHT22;1243;54.298;10.172;2022-09-28T19:28:55;8.90;92.00